sensor_id;sensor_type;location;lat;lon;timestamp;pressure;altitude;pressure_sealevel;temperature
23208;BMP180;11773;52.570;13.052;2022-12-29T00:00:45;100305.00;;;13.30
23208;BMP180;11773;52.570;13.052;2022-12-29T00:03:14;100299.00;;;13.30
23208;BMP180;11773;52.570;13.052;2022-12-29T00:05:45;100295.00;;;13.40
23208;BMP180;11773;52.570;13.052;2022-12-29T00:08:14;100296.00;;;13.40
23208;BMP180;11773;52.570;13.052;2022-12-29T00:10:44;100285.00;;;13.40
23208;BMP180;11773;52.570;13.052;2022-12-29T00:13:13;100284.00;;;13.40
23208;BMP180;11773;52.570;13.052;2022-12-29T00:16:00;100287.00;;;13.40
23208;BMP180;11773;52.570;13.052;2022-12-29T00:18:30;100290.00;;;13.40
23208;BMP180;11773;52.570;13.052;2022-12-29T00:21:01;100281.00;;;13.50
23208;BMP180;11773;52.570;13.052;2022-12-29T00:23:48;100286.00;;;13.40
23208;BMP180;11773;52.570;13.052;2022-12-29T00:26:35;100279.00;;;13.40
23208;BMP180;11773;52.570;13.052;2022-12-29T00:29:23;100275.00;;;13.40
23208;BMP180;11773;52.570;13.052;2022-12-29T00:32:11;100266.00;;;13.50
23208;BMP180;11773;52.570;13.052;2022-12-29T00:34:58;100267.00;;;13.40
23208;BMP180;11773;52.570;13.052;2022-12-29T00:37:46;100284.00;;;13.50
23208;BMP180;11773;52.570;13.052;2022-12-29T00:40:34;100274.00;;;13.50
23208;BMP180;11773;52.570;13.052;2022-12-29T00:43:21;100252.00;;;13.40
23208;BMP180;11773;52.570;13.052;2022-12-29T00:46:09;100274.00;;;13.40
23208;BMP180;11773;52.570;13.052;2022-12-29T00:48:40;100265.00;;;13.40
23208;BMP180;11773;52.570;13.052;2022-12-29T00:51:27;100263.00;;;13.40
23208;BMP180;11773;52.570;13.052;2022-12-29T00:53:57;100273.00;;;13.50
23208;BMP180;11773;52.570;13.052;2022-12-29T00:56:27;100255.00;;;13.50
23208;BMP180;11773;52.570;13.052;2022-12-29T00:59:01;100268.00;;;13.50
23208;BMP180;11773;52.570;13.052;2022-12-29T01:01:31;100255.00;;;13.50
23208;BMP180;11773;52.570;13.052;2022-12-29T01:04:01;100253.00;;;13.50
23208;BMP180;11773;52.570;13.052;2022-12-29T01:06:33;100256.00;;;13.50
23208;BMP180;11773;52.570;13.052;2022-12-29T01:09:03;100250.00;;;13.50
23208;BMP180;11773;52.570;13.052;2022-12-29T01:11:51;100241.00;;;13.50
23208;BMP180;11773;52.570;13.052;2022-12-29T01:14:22;100238.00;;;13.50
23208;BMP180;11773;52.570;13.052;2022-12-29T01:16:52;100245.00;;;13.50
23208;BMP180;11773;52.570;13.052;2022-12-29T01:19:22;100252.00;;;13.50
23208;BMP180;11773;52.570;13.052;2022-12-29T01:21:51;100251.00;;;13.50
23208;BMP180;11773;52.570;13.052;2022-12-29T01:24:22;100242.00;;;13.50
23208;BMP180;11773;52.570;13.052;2022-12-29T01:26:52;100241.00;;;13.50
23208;BMP180;11773;52.570;13.052;2022-12-29T01:29:23;100246.00;;;13.50
23208;BMP180;11773;52.570;13.052;2022-12-29T01:31:52;100235.00;;;13.50
23208;BMP180;11773;52.570;13.052;2022-12-29T01:34:22;100247.00;;;13.50
23208;BMP180;11773;52.570;13.052;2022-12-29T01:36:51;100251.00;;;13.50
23208;BMP180;11773;52.570;13.052;2022-12-29T01:39:21;100257.00;;;13.50
23208;BMP180;11773;52.570;13.052;2022-12-29T01:41:50;100246.00;;;13.60
23208;BMP180;11773;52.570;13.052;2022-12-29T01:44:55;100240.00;;;13.60
23208;BMP180;11773;52.570;13.052;2022-12-29T01:47:44;100255.00;;;13.50
23208;BMP180;11773;52.570;13.052;2022-12-29T01:50:38;100231.00;;;13.50
23208;BMP180;11773;52.570;13.052;2022-12-29T01:53:20;100231.00;;;13.50
23208;BMP180;11773;52.570;13.052;2022-12-29T01:55:53;100231.00;;;13.50
23208;BMP180;11773;52.570;13.052;2022-12-29T01:58:28;100224.00;;;13.50
23208;BMP180;11773;52.570;13.052;2022-12-29T02:00:57;100234.00;;;13.60
23208;BMP180;11773;52.570;13.052;2022-12-29T02:03:29;100220.00;;;13.60
23208;BMP180;11773;52.570;13.052;2022-12-29T02:06:22;100216.00;;;13.60
23208;BMP180;11773;52.570;13.052;2022-12-29T02:08:55;100213.00;;;13.60
23208;BMP180;11773;52.570;13.052;2022-12-29T02:11:27;100205.00;;;13.60
23208;BMP180;11773;52.570;13.052;2022-12-29T02:13:58;100206.00;;;13.60
23208;BMP180;11773;52.570;13.052;2022-12-29T02:20:23;100201.00;;;13.60
23208;BMP180;11773;52.570;13.052;2022-12-29T02:23:07;100195.00;;;13.60
23208;BMP180;11773;52.570;13.052;2022-12-29T02:31:29;100196.00;;;13.60
23208;BMP180;11773;52.570;13.052;2022-12-29T02:43:06;100188.00;;;13.60
23208;BMP180;11773;52.570;13.052;2022-12-29T02:45:56;100180.00;;;13.60
23208;BMP180;11773;52.570;13.052;2022-12-29T02:48:55;100183.00;;;13.60
23208;BMP180;11773;52.570;13.052;2022-12-29T02:51:32;100177.00;;;13.60
23208;BMP180;11773;52.570;13.052;2022-12-29T02:54:01;100178.00;;;13.60
23208;BMP180;11773;52.570;13.052;2022-12-29T02:56:48;100188.00;;;13.60
23208;BMP180;11773;52.570;13.052;2022-12-29T02:59:18;100172.00;;;13.60
23208;BMP180;11773;52.570;13.052;2022-12-29T03:02:18;100171.00;;;13.70
23208;BMP180;11773;52.570;13.052;2022-12-29T03:11:16;100143.00;;;13.70
23208;BMP180;11773;52.570;13.052;2022-12-29T03:13:25;100164.00;;;13.70
23208;BMP180;11773;52.570;13.052;2022-12-29T03:19:14;100161.00;;;13.70
23208;BMP180;11773;52.570;13.052;2022-12-29T03:21:45;100163.00;;;13.80
23208;BMP180;11773;52.570;13.052;2022-12-29T03:24:38;100147.00;;;13.80
23208;BMP180;11773;52.570;13.052;2022-12-29T03:27:13;100148.00;;;13.80
23208;BMP180;11773;52.570;13.052;2022-12-29T03:29:50;100144.00;;;13.80
23208;BMP180;11773;52.570;13.052;2022-12-29T03:32:26;100140.00;;;13.80
23208;BMP180;11773;52.570;13.052;2022-12-29T03:34:55;100154.00;;;13.80
23208;BMP180;11773;52.570;13.052;2022-12-29T03:37:30;100160.00;;;13.80
23208;BMP180;11773;52.570;13.052;2022-12-29T03:39:59;100156.00;;;13.90
23208;BMP180;11773;52.570;13.052;2022-12-29T03:42:32;100156.00;;;13.90
23208;BMP180;11773;52.570;13.052;2022-12-29T03:45:05;100159.00;;;13.90
23208;BMP180;11773;52.570;13.052;2022-12-29T03:47:35;100178.00;;;13.90
23208;BMP180;11773;52.570;13.052;2022-12-29T03:50:06;100167.00;;;13.90
23208;BMP180;11773;52.570;13.052;2022-12-29T03:52:36;100165.00;;;14.00
23208;BMP180;11773;52.570;13.052;2022-12-29T03:55:07;100157.00;;;14.00
23208;BMP180;11773;52.570;13.052;2022-12-29T03:57:36;100162.00;;;14.00
23208;BMP180;11773;52.570;13.052;2022-12-29T04:00:07;100146.00;;;14.00
23208;BMP180;11773;52.570;13.052;2022-12-29T04:02:36;100141.00;;;14.10
23208;BMP180;11773;52.570;13.052;2022-12-29T04:05:07;100161.00;;;14.10
23208;BMP180;11773;52.570;13.052;2022-12-29T04:07:36;100140.00;;;14.10
23208;BMP180;11773;52.570;13.052;2022-12-29T04:10:07;100140.00;;;14.10
23208;BMP180;11773;52.570;13.052;2022-12-29T04:12:36;100144.00;;;14.10
23208;BMP180;11773;52.570;13.052;2022-12-29T04:15:07;100138.00;;;14.10
23208;BMP180;11773;52.570;13.052;2022-12-29T04:17:36;100133.00;;;14.10
23208;BMP180;11773;52.570;13.052;2022-12-29T04:20:07;100141.00;;;14.10
23208;BMP180;11773;52.570;13.052;2022-12-29T04:23:03;100125.00;;;14.20
23208;BMP180;11773;52.570;13.052;2022-12-29T04:25:34;100143.00;;;14.20
23208;BMP180;11773;52.570;13.052;2022-12-29T04:28:04;100123.00;;;14.20
23208;BMP180;11773;52.570;13.052;2022-12-29T04:30:35;100124.00;;;14.20
23208;BMP180;11773;52.570;13.052;2022-12-29T04:33:04;100116.00;;;14.20
23208;BMP180;11773;52.570;13.052;2022-12-29T04:35:36;100120.00;;;14.20
23208;BMP180;11773;52.570;13.052;2022-12-29T04:38:05;100122.00;;;14.20
23208;BMP180;11773;52.570;13.052;2022-12-29T04:40:35;100135.00;;;14.20
23208;BMP180;11773;52.570;13.052;2022-12-29T04:43:07;100117.00;;;14.20
23208;BMP180;11773;52.570;13.052;2022-12-29T04:45:44;100125.00;;;14.20
23208;BMP180;11773;52.570;13.052;2022-12-29T04:48:10;100103.00;;;14.20
23208;BMP180;11773;52.570;13.052;2022-12-29T04:50:41;100117.00;;;14.20
23208;BMP180;11773;52.570;13.052;2022-12-29T04:53:10;100118.00;;;14.20
23208;BMP180;11773;52.570;13.052;2022-12-29T04:55:40;100115.00;;;14.20
23208;BMP180;11773;52.570;13.052;2022-12-29T04:58:09;100123.00;;;14.30
23208;BMP180;11773;52.570;13.052;2022-12-29T05:00:41;100112.00;;;14.30
23208;BMP180;11773;52.570;13.052;2022-12-29T05:03:10;100109.00;;;14.30
23208;BMP180;11773;52.570;13.052;2022-12-29T05:05:41;100119.00;;;14.30
23208;BMP180;11773;52.570;13.052;2022-12-29T05:08:11;100117.00;;;14.30
23208;BMP180;11773;52.570;13.052;2022-12-29T05:10:44;100112.00;;;14.30
23208;BMP180;11773;52.570;13.052;2022-12-29T05:13:13;100101.00;;;14.30
23208;BMP180;11773;52.570;13.052;2022-12-29T05:15:51;100097.00;;;14.30
23208;BMP180;11773;52.570;13.052;2022-12-29T05:18:21;100085.00;;;14.40
23208;BMP180;11773;52.570;13.052;2022-12-29T05:20:51;100090.00;;;14.40
23208;BMP180;11773;52.570;13.052;2022-12-29T05:23:20;100083.00;;;14.40
23208;BMP180;11773;52.570;13.052;2022-12-29T05:25:50;100066.00;;;14.40
23208;BMP180;11773;52.570;13.052;2022-12-29T05:28:19;100079.00;;;14.40
23208;BMP180;11773;52.570;13.052;2022-12-29T05:30:51;100089.00;;;14.40
23208;BMP180;11773;52.570;13.052;2022-12-29T05:33:20;100077.00;;;14.40
23208;BMP180;11773;52.570;13.052;2022-12-29T05:35:50;100090.00;;;14.40
23208;BMP180;11773;52.570;13.052;2022-12-29T05:38:19;100086.00;;;14.40
23208;BMP180;11773;52.570;13.052;2022-12-29T05:40:49;100083.00;;;14.50
23208;BMP180;11773;52.570;13.052;2022-12-29T05:43:18;100089.00;;;14.50
23208;BMP180;11773;52.570;13.052;2022-12-29T05:45:50;100083.00;;;14.50
23208;BMP180;11773;52.570;13.052;2022-12-29T05:48:19;100097.00;;;14.50
23208;BMP180;11773;52.570;13.052;2022-12-29T05:50:50;100092.00;;;14.50
23208;BMP180;11773;52.570;13.052;2022-12-29T05:53:20;100080.00;;;14.50
23208;BMP180;11773;52.570;13.052;2022-12-29T05:55:50;100078.00;;;14.50
23208;BMP180;11773;52.570;13.052;2022-12-29T05:58:20;100070.00;;;14.60
23208;BMP180;11773;52.570;13.052;2022-12-29T06:00:49;100082.00;;;14.60
23208;BMP180;11773;52.570;13.052;2022-12-29T06:03:19;100075.00;;;14.60
23208;BMP180;11773;52.570;13.052;2022-12-29T06:05:48;100077.00;;;14.60
23208;BMP180;11773;52.570;13.052;2022-12-29T06:08:18;100075.00;;;14.60
23208;BMP180;11773;52.570;13.052;2022-12-29T06:10:47;100074.00;;;14.60
23208;BMP180;11773;52.570;13.052;2022-12-29T06:13:17;100079.00;;;14.60
23208;BMP180;11773;52.570;13.052;2022-12-29T06:15:51;100092.00;;;14.60
23208;BMP180;11773;52.570;13.052;2022-12-29T06:18:20;100085.00;;;14.60
23208;BMP180;11773;52.570;13.052;2022-12-29T06:20:50;100061.00;;;14.60
23208;BMP180;11773;52.570;13.052;2022-12-29T06:23:19;100085.00;;;14.70
23208;BMP180;11773;52.570;13.052;2022-12-29T06:25:49;100073.00;;;14.70
23208;BMP180;11773;52.570;13.052;2022-12-29T06:28:18;100081.00;;;14.70
23208;BMP180;11773;52.570;13.052;2022-12-29T06:30:48;100075.00;;;14.70
23208;BMP180;11773;52.570;13.052;2022-12-29T06:33:18;100078.00;;;14.70
23208;BMP180;11773;52.570;13.052;2022-12-29T06:35:49;100098.00;;;14.70
23208;BMP180;11773;52.570;13.052;2022-12-29T06:38:18;100089.00;;;14.70
23208;BMP180;11773;52.570;13.052;2022-12-29T06:40:48;100068.00;;;14.80
23208;BMP180;11773;52.570;13.052;2022-12-29T06:43:17;100067.00;;;14.80
23208;BMP180;11773;52.570;13.052;2022-12-29T06:45:47;100075.00;;;14.80
23208;BMP180;11773;52.570;13.052;2022-12-29T06:48:16;100077.00;;;14.80
23208;BMP180;11773;52.570;13.052;2022-12-29T06:50:46;100083.00;;;14.80
23208;BMP180;11773;52.570;13.052;2022-12-29T06:53:15;100087.00;;;14.80
23208;BMP180;11773;52.570;13.052;2022-12-29T06:55:45;100097.00;;;14.80
23208;BMP180;11773;52.570;13.052;2022-12-29T06:58:14;100090.00;;;14.90
23208;BMP180;11773;52.570;13.052;2022-12-29T07:00:44;100100.00;;;14.90
23208;BMP180;11773;52.570;13.052;2022-12-29T07:03:14;100097.00;;;14.90
23208;BMP180;11773;52.570;13.052;2022-12-29T07:05:44;100112.00;;;14.90
23208;BMP180;11773;52.570;13.052;2022-12-29T07:08:13;100105.00;;;14.90
23208;BMP180;11773;52.570;13.052;2022-12-29T07:10:45;100096.00;;;14.90
23208;BMP180;11773;52.570;13.052;2022-12-29T07:13:14;100105.00;;;14.90
23208;BMP180;11773;52.570;13.052;2022-12-29T07:15:44;100099.00;;;14.90
23208;BMP180;11773;52.570;13.052;2022-12-29T07:18:13;100088.00;;;14.90
23208;BMP180;11773;52.570;13.052;2022-12-29T07:20:44;100088.00;;;14.90
23208;BMP180;11773;52.570;13.052;2022-12-29T07:23:14;100096.00;;;14.90
23208;BMP180;11773;52.570;13.052;2022-12-29T07:25:43;100086.00;;;14.90
23208;BMP180;11773;52.570;13.052;2022-12-29T07:28:13;100079.00;;;14.90
23208;BMP180;11773;52.570;13.052;2022-12-29T07:30:42;100093.00;;;14.90
23208;BMP180;11773;52.570;13.052;2022-12-29T07:33:12;100070.00;;;14.90
23208;BMP180;11773;52.570;13.052;2022-12-29T07:35:41;100077.00;;;14.90
23208;BMP180;11773;52.570;13.052;2022-12-29T07:38:11;100077.00;;;14.90
23208;BMP180;11773;52.570;13.052;2022-12-29T07:40:40;100070.00;;;14.90
23208;BMP180;11773;52.570;13.052;2022-12-29T07:43:10;100083.00;;;14.90
23208;BMP180;11773;52.570;13.052;2022-12-29T07:45:39;100085.00;;;14.90
23208;BMP180;11773;52.570;13.052;2022-12-29T07:48:09;100083.00;;;14.90
23208;BMP180;11773;52.570;13.052;2022-12-29T07:50:38;100091.00;;;14.90
23208;BMP180;11773;52.570;13.052;2022-12-29T07:53:08;100086.00;;;14.90
23208;BMP180;11773;52.570;13.052;2022-12-29T07:55:38;100087.00;;;14.90
23208;BMP180;11773;52.570;13.052;2022-12-29T07:58:08;100078.00;;;14.90
23208;BMP180;11773;52.570;13.052;2022-12-29T08:00:39;100091.00;;;14.90
23208;BMP180;11773;52.570;13.052;2022-12-29T08:03:08;100079.00;;;14.90
23208;BMP180;11773;52.570;13.052;2022-12-29T08:05:38;100083.00;;;14.90
23208;BMP180;11773;52.570;13.052;2022-12-29T08:08:08;100078.00;;;14.90
23208;BMP180;11773;52.570;13.052;2022-12-29T08:10:37;100084.00;;;14.90
23208;BMP180;11773;52.570;13.052;2022-12-29T08:13:07;100086.00;;;14.90
23208;BMP180;11773;52.570;13.052;2022-12-29T08:15:38;100103.00;;;15.00
23208;BMP180;11773;52.570;13.052;2022-12-29T08:18:08;100107.00;;;15.00
23208;BMP180;11773;52.570;13.052;2022-12-29T08:20:37;100090.00;;;15.00
23208;BMP180;11773;52.570;13.052;2022-12-29T08:23:06;100098.00;;;15.00
23208;BMP180;11773;52.570;13.052;2022-12-29T08:25:36;100079.00;;;15.00
23208;BMP180;11773;52.570;13.052;2022-12-29T08:28:05;100063.00;;;15.00
23208;BMP180;11773;52.570;13.052;2022-12-29T08:30:36;100076.00;;;15.00
23208;BMP180;11773;52.570;13.052;2022-12-29T08:33:06;100070.00;;;15.00
23208;BMP180;11773;52.570;13.052;2022-12-29T08:35:35;100087.00;;;15.00
23208;BMP180;11773;52.570;13.052;2022-12-29T08:38:05;100079.00;;;15.10
23208;BMP180;11773;52.570;13.052;2022-12-29T08:40:35;100088.00;;;15.10
23208;BMP180;11773;52.570;13.052;2022-12-29T08:43:04;100083.00;;;15.10
23208;BMP180;11773;52.570;13.052;2022-12-29T08:45:36;100074.00;;;15.10
23208;BMP180;11773;52.570;13.052;2022-12-29T08:48:05;100082.00;;;15.10
23208;BMP180;11773;52.570;13.052;2022-12-29T08:50:35;100069.00;;;15.10
23208;BMP180;11773;52.570;13.052;2022-12-29T08:53:04;100077.00;;;15.10
23208;BMP180;11773;52.570;13.052;2022-12-29T08:55:34;100063.00;;;15.10
23208;BMP180;11773;52.570;13.052;2022-12-29T08:58:04;100058.00;;;15.10
23208;BMP180;11773;52.570;13.052;2022-12-29T09:00:34;100059.00;;;15.10
23208;BMP180;11773;52.570;13.052;2022-12-29T09:03:03;100073.00;;;15.10
23208;BMP180;11773;52.570;13.052;2022-12-29T09:05:33;100046.00;;;15.20
23208;BMP180;11773;52.570;13.052;2022-12-29T09:08:03;100057.00;;;15.20
23208;BMP180;11773;52.570;13.052;2022-12-29T09:10:33;100055.00;;;15.20
23208;BMP180;11773;52.570;13.052;2022-12-29T09:13:02;100047.00;;;15.20
23208;BMP180;11773;52.570;13.052;2022-12-29T09:15:32;100052.00;;;15.30
23208;BMP180;11773;52.570;13.052;2022-12-29T09:18:01;100057.00;;;15.30
23208;BMP180;11773;52.570;13.052;2022-12-29T09:20:31;100057.00;;;15.30
23208;BMP180;11773;52.570;13.052;2022-12-29T09:23:00;100054.00;;;15.40
23208;BMP180;11773;52.570;13.052;2022-12-29T09:25:30;100078.00;;;15.40
23208;BMP180;11773;52.570;13.052;2022-12-29T09:27:59;100040.00;;;15.50
23208;BMP180;11773;52.570;13.052;2022-12-29T09:30:30;100067.00;;;15.50
23208;BMP180;11773;52.570;13.052;2022-12-29T09:33:01;100058.00;;;15.50
23208;BMP180;11773;52.570;13.052;2022-12-29T09:35:30;100042.00;;;15.60
23208;BMP180;11773;52.570;13.052;2022-12-29T09:38:00;100032.00;;;15.60
23208;BMP180;11773;52.570;13.052;2022-12-29T09:40:31;100038.00;;;15.70
23208;BMP180;11773;52.570;13.052;2022-12-29T09:43:29;100054.00;;;15.70
23208;BMP180;11773;52.570;13.052;2022-12-29T09:46:29;100059.00;;;15.70
23208;BMP180;11773;52.570;13.052;2022-12-29T09:49:23;100058.00;;;15.70
23208;BMP180;11773;52.570;13.052;2022-12-29T09:51:56;100063.00;;;15.70
23208;BMP180;11773;52.570;13.052;2022-12-29T09:54:37;100061.00;;;15.80
23208;BMP180;11773;52.570;13.052;2022-12-29T09:57:24;100076.00;;;15.90
23208;BMP180;11773;52.570;13.052;2022-12-29T09:59:54;100075.00;;;15.90
23208;BMP180;11773;52.570;13.052;2022-12-29T10:02:37;100057.00;;;15.90
23208;BMP180;11773;52.570;13.052;2022-12-29T10:14:47;100047.00;;;16.00
23208;BMP180;11773;52.570;13.052;2022-12-29T10:18:01;100054.00;;;16.10
23208;BMP180;11773;52.570;13.052;2022-12-29T10:23:51;100061.00;;;16.10
23208;BMP180;11773;52.570;13.052;2022-12-29T10:26:31;100068.00;;;16.10
23208;BMP180;11773;52.570;13.052;2022-12-29T10:29:11;100053.00;;;16.20
23208;BMP180;11773;52.570;13.052;2022-12-29T10:31:47;100047.00;;;16.30
23208;BMP180;11773;52.570;13.052;2022-12-29T10:34:23;100047.00;;;16.30
23208;BMP180;11773;52.570;13.052;2022-12-29T10:36:53;100054.00;;;16.40
23208;BMP180;11773;52.570;13.052;2022-12-29T10:39:40;100051.00;;;16.40
23208;BMP180;11773;52.570;13.052;2022-12-29T10:42:26;100045.00;;;16.40
23208;BMP180;11773;52.570;13.052;2022-12-29T10:44:58;100051.00;;;16.50
23208;BMP180;11773;52.570;13.052;2022-12-29T10:47:33;100049.00;;;16.50
23208;BMP180;11773;52.570;13.052;2022-12-29T10:50:03;100037.00;;;16.50
23208;BMP180;11773;52.570;13.052;2022-12-29T10:52:35;100046.00;;;16.60
23208;BMP180;11773;52.570;13.052;2022-12-29T10:55:19;100030.00;;;16.60
23208;BMP180;11773;52.570;13.052;2022-12-29T10:57:48;100049.00;;;16.60
23208;BMP180;11773;52.570;13.052;2022-12-29T11:00:21;100045.00;;;16.70
23208;BMP180;11773;52.570;13.052;2022-12-29T11:06:11;100039.00;;;16.70
23208;BMP180;11773;52.570;13.052;2022-12-29T11:08:51;100052.00;;;16.70
23208;BMP180;11773;52.570;13.052;2022-12-29T11:11:22;100031.00;;;16.70
23208;BMP180;11773;52.570;13.052;2022-12-29T11:13:55;100038.00;;;16.80
23208;BMP180;11773;52.570;13.052;2022-12-29T11:16:34;100042.00;;;16.80
23208;BMP180;11773;52.570;13.052;2022-12-29T11:19:05;100054.00;;;16.80
23208;BMP180;11773;52.570;13.052;2022-12-29T11:21:38;100060.00;;;16.80
23208;BMP180;11773;52.570;13.052;2022-12-29T11:24:28;100060.00;;;16.80
23208;BMP180;11773;52.570;13.052;2022-12-29T11:27:17;100054.00;;;16.80
23208;BMP180;11773;52.570;13.052;2022-12-29T11:29:49;100066.00;;;16.80
23208;BMP180;11773;52.570;13.052;2022-12-29T11:32:28;100044.00;;;16.80
23208;BMP180;11773;52.570;13.052;2022-12-29T11:34:59;100045.00;;;16.80
23208;BMP180;11773;52.570;13.052;2022-12-29T11:37:36;100050.00;;;16.80
23208;BMP180;11773;52.570;13.052;2022-12-29T11:40:14;100053.00;;;16.80
23208;BMP180;11773;52.570;13.052;2022-12-29T11:42:41;100050.00;;;16.80
23208;BMP180;11773;52.570;13.052;2022-12-29T11:45:35;100045.00;;;16.80
23208;BMP180;11773;52.570;13.052;2022-12-29T11:48:18;100048.00;;;16.80
23208;BMP180;11773;52.570;13.052;2022-12-29T11:50:53;100037.00;;;16.80
23208;BMP180;11773;52.570;13.052;2022-12-29T11:53:33;100052.00;;;16.80
23208;BMP180;11773;52.570;13.052;2022-12-29T11:56:11;100060.00;;;16.70
23208;BMP180;11773;52.570;13.052;2022-12-29T11:58:41;100056.00;;;16.70
23208;BMP180;11773;52.570;13.052;2022-12-29T12:01:18;100078.00;;;16.70
23208;BMP180;11773;52.570;13.052;2022-12-29T12:04:10;100078.00;;;16.70
23208;BMP180;11773;52.570;13.052;2022-12-29T12:06:40;100082.00;;;16.70
23208;BMP180;11773;52.570;13.052;2022-12-29T12:09:16;100095.00;;;16.70
23208;BMP180;11773;52.570;13.052;2022-12-29T12:11:46;100102.00;;;16.60
23208;BMP180;11773;52.570;13.052;2022-12-29T12:14:51;100084.00;;;16.60
23208;BMP180;11773;52.570;13.052;2022-12-29T12:17:24;100075.00;;;16.60
23208;BMP180;11773;52.570;13.052;2022-12-29T12:20:14;100056.00;;;16.60
23208;BMP180;11773;52.570;13.052;2022-12-29T12:22:54;100076.00;;;16.60
23208;BMP180;11773;52.570;13.052;2022-12-29T12:25:51;100070.00;;;16.50
23208;BMP180;11773;52.570;13.052;2022-12-29T12:33:41;100074.00;;;16.40
23208;BMP180;11773;52.570;13.052;2022-12-29T12:39:19;100069.00;;;16.40
23208;BMP180;11773;52.570;13.052;2022-12-29T12:41:54;100067.00;;;16.30
23208;BMP180;11773;52.570;13.052;2022-12-29T12:50:25;100069.00;;;16.30
23208;BMP180;11773;52.570;13.052;2022-12-29T12:56:14;100061.00;;;16.20
23208;BMP180;11773;52.570;13.052;2022-12-29T13:02:01;100086.00;;;16.20
23208;BMP180;11773;52.570;13.052;2022-12-29T13:04:56;100086.00;;;16.20
23208;BMP180;11773;52.570;13.052;2022-12-29T13:07:27;100086.00;;;16.20
23208;BMP180;11773;52.570;13.052;2022-12-29T13:16:06;100092.00;;;16.10
23208;BMP180;11773;52.570;13.052;2022-12-29T13:18:51;100092.00;;;16.10
23208;BMP180;11773;52.570;13.052;2022-12-29T13:21:59;100095.00;;;16.10
23208;BMP180;11773;52.570;13.052;2022-12-29T13:24:56;100104.00;;;16.10
23208;BMP180;11773;52.570;13.052;2022-12-29T13:27:40;100090.00;;;16.10
23208;BMP180;11773;52.570;13.052;2022-12-29T13:30:15;100090.00;;;16.10
23208;BMP180;11773;52.570;13.052;2022-12-29T13:36:05;100085.00;;;16.00
23208;BMP180;11773;52.570;13.052;2022-12-29T13:38:46;100104.00;;;16.00
23208;BMP180;11773;52.570;13.052;2022-12-29T13:41:19;100102.00;;;16.00
23208;BMP180;11773;52.570;13.052;2022-12-29T13:43:50;100088.00;;;16.00
23208;BMP180;11773;52.570;13.052;2022-12-29T13:46:24;100099.00;;;16.00
23208;BMP180;11773;52.570;13.052;2022-12-29T13:49:05;100107.00;;;16.00
23208;BMP180;11773;52.570;13.052;2022-12-29T13:51:37;100121.00;;;16.00
23208;BMP180;11773;52.570;13.052;2022-12-29T13:54:31;100123.00;;;16.00
23208;BMP180;11773;52.570;13.052;2022-12-29T14:03:51;100128.00;;;16.00
23208;BMP180;11773;52.570;13.052;2022-12-29T14:05:32;100126.00;;;15.90
23208;BMP180;11773;52.570;13.052;2022-12-29T14:08:05;100122.00;;;15.90
23208;BMP180;11773;52.570;13.052;2022-12-29T14:10:50;100136.00;;;15.90
23208;BMP180;11773;52.570;13.052;2022-12-29T14:13:23;100141.00;;;15.90
23208;BMP180;11773;52.570;13.052;2022-12-29T14:15:59;100147.00;;;15.90
23208;BMP180;11773;52.570;13.052;2022-12-29T14:18:33;100140.00;;;15.90
23208;BMP180;11773;52.570;13.052;2022-12-29T14:23:44;100143.00;;;15.90
23208;BMP180;11773;52.570;13.052;2022-12-29T14:26:33;100147.00;;;16.00
23208;BMP180;11773;52.570;13.052;2022-12-29T14:31:59;100158.00;;;15.90
23208;BMP180;11773;52.570;13.052;2022-12-29T14:34:36;100151.00;;;15.90
23208;BMP180;11773;52.570;13.052;2022-12-29T14:37:03;100158.00;;;15.90
23208;BMP180;11773;52.570;13.052;2022-12-29T14:39:42;100161.00;;;15.90
23208;BMP180;11773;52.570;13.052;2022-12-29T14:42:18;100150.00;;;15.90
23208;BMP180;11773;52.570;13.052;2022-12-29T14:44:52;100178.00;;;15.90
23208;BMP180;11773;52.570;13.052;2022-12-29T14:47:37;100194.00;;;16.00
23208;BMP180;11773;52.570;13.052;2022-12-29T14:50:15;100212.00;;;15.90
23208;BMP180;11773;52.570;13.052;2022-12-29T14:52:57;100223.00;;;15.90
23208;BMP180;11773;52.570;13.052;2022-12-29T14:55:47;100242.00;;;15.90
23208;BMP180;11773;52.570;13.052;2022-12-29T14:58:50;100247.00;;;15.90
23208;BMP180;11773;52.570;13.052;2022-12-29T15:01:39;100190.00;;;15.80
23208;BMP180;11773;52.570;13.052;2022-12-29T15:04:18;100196.00;;;15.80
23208;BMP180;11773;52.570;13.052;2022-12-29T15:06:50;100198.00;;;15.70
23208;BMP180;11773;52.570;13.052;2022-12-29T15:09:43;100192.00;;;15.80
23208;BMP180;11773;52.570;13.052;2022-12-29T15:12:32;100218.00;;;15.70
23208;BMP180;11773;52.570;13.052;2022-12-29T15:14:59;100238.00;;;15.70
23208;BMP180;11773;52.570;13.052;2022-12-29T15:17:33;100221.00;;;15.70
23208;BMP180;11773;52.570;13.052;2022-12-29T15:20:29;100208.00;;;15.70
23208;BMP180;11773;52.570;13.052;2022-12-29T15:23:10;100216.00;;;15.70
23208;BMP180;11773;52.570;13.052;2022-12-29T15:26:02;100230.00;;;15.60
23208;BMP180;11773;52.570;13.052;2022-12-29T15:28:27;100219.00;;;15.70
23208;BMP180;11773;52.570;13.052;2022-12-29T15:31:06;100221.00;;;15.60
23208;BMP180;11773;52.570;13.052;2022-12-29T15:33:39;100231.00;;;15.70
23208;BMP180;11773;52.570;13.052;2022-12-29T15:36:19;100221.00;;;15.70
23208;BMP180;11773;52.570;13.052;2022-12-29T15:38:43;100235.00;;;15.70
23208;BMP180;11773;52.570;13.052;2022-12-29T15:44:24;100231.00;;;15.60
23208;BMP180;11773;52.570;13.052;2022-12-29T15:46:53;100243.00;;;15.60
23208;BMP180;11773;52.570;13.052;2022-12-29T15:49:22;100247.00;;;15.60
23208;BMP180;11773;52.570;13.052;2022-12-29T15:51:54;100257.00;;;15.60
23208;BMP180;11773;52.570;13.052;2022-12-29T15:54:25;100252.00;;;15.60